Terminal Aerodrome Forecast
Issued by NWS

Current Version | Previous Version | Graphics & Text | Print | Product List | Glossary Off
Versions: 1 2 3 4 5 6 7 8 9 10 11 12 13 14 15 16 17 18 19 20 21 22 23

000
FTUS42 KILM 281123
TAFCRE
TAF
KCRE 281123Z 2812/2912 17006KT P6SM SCT015 SCT025 BKN120
      TEMPO 2812/2816 SCT015 BKN025
     FM281700 19009KT P6SM VCTS SCT035CB BKN080
      TEMPO 2822/2902 VRB15G25KT 3SM TSRA BKN035CB OVC050
     FM290300 VRB03KT P6SM VCSH SCT040 BKN100=

USA.gov is the U.S. government's official web portal to all federal, state and local government web resources and services.